sensor_id;sensor_type;location;lat;lon;timestamp;temperature;humidity
3942;DHT22;1985;48.592;8.850;2022-12-17T00:00:59;-1.80;99.90
3942;DHT22;1985;48.592;8.850;2022-12-17T00:03:44;-2.00;99.90
3942;DHT22;1985;48.592;8.850;2022-12-17T00:06:29;-2.10;99.90
3942;DHT22;1985;48.592;8.850;2022-12-17T00:09:13;-2.10;99.90
3942;DHT22;1985;48.592;8.850;2022-12-17T00:11:57;-2.10;99.90
3942;DHT22;1985;48.592;8.850;2022-12-17T00:14:41;-2.30;99.90
3942;DHT22;1985;48.592;8.850;2022-12-17T00:17:25;-2.40;99.90
3942;DHT22;1985;48.592;8.850;2022-12-17T00:20:09;-2.40;99.90
3942;DHT22;1985;48.592;8.850;2022-12-17T00:23:01;-2.50;99.90
3942;DHT22;1985;48.592;8.850;2022-12-17T00:25:53;-2.60;99.90
3942;DHT22;1985;48.592;8.850;2022-12-17T00:28:39;-2.70;99.90
3942;DHT22;1985;48.592;8.850;2022-12-17T00:31:26;-2.80;99.90
3942;DHT22;1985;48.592;8.850;2022-12-17T00:34:10;-2.80;99.90
3942;DHT22;1985;48.592;8.850;2022-12-17T00:36:54;-2.90;99.90
3942;DHT22;1985;48.592;8.850;2022-12-17T00:39:38;-3.00;99.90
3942;DHT22;1985;48.592;8.850;2022-12-17T00:42:22;-3.10;99.90
3942;DHT22;1985;48.592;8.850;2022-12-17T00:45:07;-3.20;99.90
3942;DHT22;1985;48.592;8.850;2022-12-17T00:47:51;-3.20;99.90
3942;DHT22;1985;48.592;8.850;2022-12-17T00:50:35;-3.20;99.90
3942;DHT22;1985;48.592;8.850;2022-12-17T00:53:19;-3.20;99.90
3942;DHT22;1985;48.592;8.850;2022-12-17T00:56:03;-3.30;99.90
3942;DHT22;1985;48.592;8.850;2022-12-17T00:58:47;-3.40;99.90
3942;DHT22;1985;48.592;8.850;2022-12-17T01:01:31;-3.40;99.90
3942;DHT22;1985;48.592;8.850;2022-12-17T01:04:15;-3.40;99.90
3942;DHT22;1985;48.592;8.850;2022-12-17T01:07:00;-3.40;99.90
3942;DHT22;1985;48.592;8.850;2022-12-17T01:09:44;-3.40;99.90
3942;DHT22;1985;48.592;8.850;2022-12-17T01:12:28;-3.50;99.90
3942;DHT22;1985;48.592;8.850;2022-12-17T01:15:12;-3.60;99.90
3942;DHT22;1985;48.592;8.850;2022-12-17T01:17:56;-3.60;99.90
3942;DHT22;1985;48.592;8.850;2022-12-17T01:20:40;-3.60;99.90
3942;DHT22;1985;48.592;8.850;2022-12-17T01:23:24;-3.60;99.90
3942;DHT22;1985;48.592;8.850;2022-12-17T01:26:08;-3.70;99.90
3942;DHT22;1985;48.592;8.850;2022-12-17T01:28:52;-3.80;99.90
3942;DHT22;1985;48.592;8.850;2022-12-17T01:31:36;-3.80;99.90
3942;DHT22;1985;48.592;8.850;2022-12-17T01:34:20;-3.80;99.90
3942;DHT22;1985;48.592;8.850;2022-12-17T01:37:04;-3.80;99.90
3942;DHT22;1985;48.592;8.850;2022-12-17T01:39:48;-4.00;99.90
3942;DHT22;1985;48.592;8.850;2022-12-17T01:42:37;-4.00;99.90
3942;DHT22;1985;48.592;8.850;2022-12-17T01:45:21;-4.00;99.90
3942;DHT22;1985;48.592;8.850;2022-12-17T01:48:11;-4.10;99.90
3942;DHT22;1985;48.592;8.850;2022-12-17T01:50:57;-4.20;99.90
3942;DHT22;1985;48.592;8.850;2022-12-17T01:53:50;-4.20;99.90
3942;DHT22;1985;48.592;8.850;2022-12-17T01:56:37;-4.10;99.90
3942;DHT22;1985;48.592;8.850;2022-12-17T01:59:27;-4.10;99.90
3942;DHT22;1985;48.592;8.850;2022-12-17T02:02:12;-4.10;99.90
3942;DHT22;1985;48.592;8.850;2022-12-17T02:04:57;-4.10;99.90
3942;DHT22;1985;48.592;8.850;2022-12-17T02:10:43;-4.10;99.90
3942;DHT22;1985;48.592;8.850;2022-12-17T02:13:35;-4.10;99.90
3942;DHT22;1985;48.592;8.850;2022-12-17T02:16:42;-4.20;99.90
3942;DHT22;1985;48.592;8.850;2022-12-17T02:25:53;-4.30;99.00
3942;DHT22;1985;48.592;8.850;2022-12-17T02:28:42;-4.30;98.90
3942;DHT22;1985;48.592;8.850;2022-12-17T02:31:28;-4.40;98.70
3942;DHT22;1985;48.592;8.850;2022-12-17T02:34:12;-4.40;98.70
3942;DHT22;1985;48.592;8.850;2022-12-17T02:36:56;-4.40;98.60
3942;DHT22;1985;48.592;8.850;2022-12-17T02:39:41;-4.50;98.40
3942;DHT22;1985;48.592;8.850;2022-12-17T02:42:25;-4.50;98.10
3942;DHT22;1985;48.592;8.850;2022-12-17T02:45:11;-4.50;98.50
3942;DHT22;1985;48.592;8.850;2022-12-17T02:47:55;-4.50;98.30
3942;DHT22;1985;48.592;8.850;2022-12-17T02:50:39;-4.60;98.90
3942;DHT22;1985;48.592;8.850;2022-12-17T02:53:24;-4.60;99.70
3942;DHT22;1985;48.592;8.850;2022-12-17T02:56:08;-4.60;99.30
3942;DHT22;1985;48.592;8.850;2022-12-17T02:58:52;-4.70;98.80
3942;DHT22;1985;48.592;8.850;2022-12-17T03:01:36;-4.70;98.40
3942;DHT22;1985;48.592;8.850;2022-12-17T03:04:20;-4.70;98.30
3942;DHT22;1985;48.592;8.850;2022-12-17T03:07:04;-4.80;98.70
3942;DHT22;1985;48.592;8.850;2022-12-17T03:09:48;-4.90;98.30
3942;DHT22;1985;48.592;8.850;2022-12-17T03:12:52;-4.90;98.70
3942;DHT22;1985;48.592;8.850;2022-12-17T03:15:36;-4.90;98.80
3942;DHT22;1985;48.592;8.850;2022-12-17T03:18:20;-4.90;98.70
3942;DHT22;1985;48.592;8.850;2022-12-17T03:21:15;-5.00;99.50
3942;DHT22;1985;48.592;8.850;2022-12-17T03:23:59;-5.00;99.90
3942;DHT22;1985;48.592;8.850;2022-12-17T03:26:45;-5.00;99.90
3942;DHT22;1985;48.592;8.850;2022-12-17T03:29:30;-5.00;99.90
3942;DHT22;1985;48.592;8.850;2022-12-17T03:32:14;-5.00;99.90
3942;DHT22;1985;48.592;8.850;2022-12-17T03:34:58;-5.00;99.90
3942;DHT22;1985;48.592;8.850;2022-12-17T03:37:42;-4.90;99.90
3942;DHT22;1985;48.592;8.850;2022-12-17T03:40:26;-4.90;99.90
3942;DHT22;1985;48.592;8.850;2022-12-17T03:43:10;-5.00;99.90
3942;DHT22;1985;48.592;8.850;2022-12-17T03:45:55;-5.00;99.90
3942;DHT22;1985;48.592;8.850;2022-12-17T03:48:39;-5.00;99.90
3942;DHT22;1985;48.592;8.850;2022-12-17T03:51:23;-4.90;99.90
3942;DHT22;1985;48.592;8.850;2022-12-17T03:54:08;-4.70;99.90
3942;DHT22;1985;48.592;8.850;2022-12-17T03:56:52;-4.60;99.90
3942;DHT22;1985;48.592;8.850;2022-12-17T03:59:36;-4.50;99.90
3942;DHT22;1985;48.592;8.850;2022-12-17T04:02:20;-4.50;99.90
3942;DHT22;1985;48.592;8.850;2022-12-17T04:05:04;-4.50;99.90
3942;DHT22;1985;48.592;8.850;2022-12-17T04:07:49;-4.40;99.90
3942;DHT22;1985;48.592;8.850;2022-12-17T04:10:33;-4.30;99.90
3942;DHT22;1985;48.592;8.850;2022-12-17T04:13:17;-4.30;99.90
3942;DHT22;1985;48.592;8.850;2022-12-17T04:16:01;-4.20;99.90
3942;DHT22;1985;48.592;8.850;2022-12-17T04:18:52;-4.10;99.90
3942;DHT22;1985;48.592;8.850;2022-12-17T04:21:37;-3.90;99.90
3942;DHT22;1985;48.592;8.850;2022-12-17T04:24:21;-3.80;99.90
3942;DHT22;1985;48.592;8.850;2022-12-17T04:27:05;-3.70;99.90
3942;DHT22;1985;48.592;8.850;2022-12-17T04:29:49;-3.60;99.90
3942;DHT22;1985;48.592;8.850;2022-12-17T04:32:33;-3.60;99.90
3942;DHT22;1985;48.592;8.850;2022-12-17T04:35:17;-3.50;99.90
3942;DHT22;1985;48.592;8.850;2022-12-17T04:38:01;-3.40;99.90
3942;DHT22;1985;48.592;8.850;2022-12-17T04:40:45;-3.40;99.90
3942;DHT22;1985;48.592;8.850;2022-12-17T04:43:49;-3.60;99.90
3942;DHT22;1985;48.592;8.850;2022-12-17T04:46:33;-3.70;99.90
3942;DHT22;1985;48.592;8.850;2022-12-17T04:49:17;-3.80;99.90
3942;DHT22;1985;48.592;8.850;2022-12-17T04:52:02;-4.10;99.90
3942;DHT22;1985;48.592;8.850;2022-12-17T04:54:46;-4.30;99.90
3942;DHT22;1985;48.592;8.850;2022-12-17T04:57:30;-4.40;99.90
3942;DHT22;1985;48.592;8.850;2022-12-17T05:00:14;-4.80;99.90
3942;DHT22;1985;48.592;8.850;2022-12-17T05:03:12;-5.00;99.90
3942;DHT22;1985;48.592;8.850;2022-12-17T05:05:58;-4.80;99.90
3942;DHT22;1985;48.592;8.850;2022-12-17T05:08:42;-4.80;99.90
3942;DHT22;1985;48.592;8.850;2022-12-17T05:11:27;-5.20;99.90
3942;DHT22;1985;48.592;8.850;2022-12-17T05:14:14;-5.10;99.90
3942;DHT22;1985;48.592;8.850;2022-12-17T05:16:59;-4.80;99.90
3942;DHT22;1985;48.592;8.850;2022-12-17T05:19:43;-4.60;99.90
3942;DHT22;1985;48.592;8.850;2022-12-17T05:22:28;-4.40;99.90
3942;DHT22;1985;48.592;8.850;2022-12-17T05:25:12;-4.20;99.90
3942;DHT22;1985;48.592;8.850;2022-12-17T05:27:56;-4.00;99.90
3942;DHT22;1985;48.592;8.850;2022-12-17T05:30:41;-3.90;99.90
3942;DHT22;1985;48.592;8.850;2022-12-17T05:33:26;-3.90;99.90
3942;DHT22;1985;48.592;8.850;2022-12-17T05:36:13;-3.80;99.90
3942;DHT22;1985;48.592;8.850;2022-12-17T05:38:57;-3.70;99.90
3942;DHT22;1985;48.592;8.850;2022-12-17T05:41:41;-3.80;99.90
3942;DHT22;1985;48.592;8.850;2022-12-17T05:44:28;-3.80;99.90
3942;DHT22;1985;48.592;8.850;2022-12-17T05:47:12;-4.40;99.90
3942;DHT22;1985;48.592;8.850;2022-12-17T05:49:56;-5.40;99.90
3942;DHT22;1985;48.592;8.850;2022-12-17T05:52:40;-5.60;99.90
3942;DHT22;1985;48.592;8.850;2022-12-17T05:55:25;-5.50;99.90
3942;DHT22;1985;48.592;8.850;2022-12-17T05:58:12;-5.60;99.90
3942;DHT22;1985;48.592;8.850;2022-12-17T06:01:02;-5.80;99.90
3942;DHT22;1985;48.592;8.850;2022-12-17T06:03:46;-6.00;99.90
3942;DHT22;1985;48.592;8.850;2022-12-17T06:06:31;-6.20;99.90
3942;DHT22;1985;48.592;8.850;2022-12-17T06:09:15;-6.30;99.90
3942;DHT22;1985;48.592;8.850;2022-12-17T06:11:59;-6.30;99.90
3942;DHT22;1985;48.592;8.850;2022-12-17T06:14:43;-6.40;99.90
3942;DHT22;1985;48.592;8.850;2022-12-17T06:17:27;-6.30;99.90
3942;DHT22;1985;48.592;8.850;2022-12-17T06:20:11;-6.20;99.90
3942;DHT22;1985;48.592;8.850;2022-12-17T06:23:09;-6.30;99.90
3942;DHT22;1985;48.592;8.850;2022-12-17T06:25:54;-6.20;99.90
3942;DHT22;1985;48.592;8.850;2022-12-17T06:28:40;-6.10;99.90
3942;DHT22;1985;48.592;8.850;2022-12-17T06:31:25;-6.00;99.90
3942;DHT22;1985;48.592;8.850;2022-12-17T06:34:09;-6.10;99.90
3942;DHT22;1985;48.592;8.850;2022-12-17T06:36:53;-6.10;99.90
3942;DHT22;1985;48.592;8.850;2022-12-17T06:39:37;-6.60;99.90
3942;DHT22;1985;48.592;8.850;2022-12-17T06:42:21;-7.00;99.90
3942;DHT22;1985;48.592;8.850;2022-12-17T06:45:07;-7.20;99.90
3942;DHT22;1985;48.592;8.850;2022-12-17T06:47:52;-7.30;99.90
3942;DHT22;1985;48.592;8.850;2022-12-17T06:50:43;-7.30;99.90
3942;DHT22;1985;48.592;8.850;2022-12-17T06:53:27;-7.10;99.90
3942;DHT22;1985;48.592;8.850;2022-12-17T06:56:11;-7.00;99.90
3942;DHT22;1985;48.592;8.850;2022-12-17T06:58:56;-6.80;99.90
3942;DHT22;1985;48.592;8.850;2022-12-17T07:01:40;-6.70;99.90
3942;DHT22;1985;48.592;8.850;2022-12-17T07:04:24;-6.40;99.90
3942;DHT22;1985;48.592;8.850;2022-12-17T07:07:08;-6.60;99.90
3942;DHT22;1985;48.592;8.850;2022-12-17T07:09:52;-6.50;99.90
3942;DHT22;1985;48.592;8.850;2022-12-17T07:12:36;-6.60;99.90
3942;DHT22;1985;48.592;8.850;2022-12-17T07:15:20;-6.60;99.90
3942;DHT22;1985;48.592;8.850;2022-12-17T07:18:04;-6.40;99.90
3942;DHT22;1985;48.592;8.850;2022-12-17T07:20:52;-6.20;99.90
3942;DHT22;1985;48.592;8.850;2022-12-17T07:23:36;-6.10;99.90
3942;DHT22;1985;48.592;8.850;2022-12-17T07:26:20;-6.00;99.90
3942;DHT22;1985;48.592;8.850;2022-12-17T07:29:04;-5.80;99.90
3942;DHT22;1985;48.592;8.850;2022-12-17T07:31:49;-5.70;99.90
3942;DHT22;1985;48.592;8.850;2022-12-17T07:34:33;-6.20;99.90
3942;DHT22;1985;48.592;8.850;2022-12-17T07:37:17;-6.60;99.90
3942;DHT22;1985;48.592;8.850;2022-12-17T07:40:01;-6.50;99.90
3942;DHT22;1985;48.592;8.850;2022-12-17T07:42:45;-6.40;99.90
3942;DHT22;1985;48.592;8.850;2022-12-17T07:45:29;-6.40;99.90
3942;DHT22;1985;48.592;8.850;2022-12-17T07:48:14;-6.30;99.90
3942;DHT22;1985;48.592;8.850;2022-12-17T07:50:58;-6.60;99.90
3942;DHT22;1985;48.592;8.850;2022-12-17T07:53:42;-6.80;99.90
3942;DHT22;1985;48.592;8.850;2022-12-17T07:56:26;-6.40;99.90
3942;DHT22;1985;48.592;8.850;2022-12-17T07:59:10;-6.40;99.90
3942;DHT22;1985;48.592;8.850;2022-12-17T08:01:54;-6.80;99.90
3942;DHT22;1985;48.592;8.850;2022-12-17T08:04:39;-7.00;99.90
3942;DHT22;1985;48.592;8.850;2022-12-17T08:07:24;-6.80;99.90
3942;DHT22;1985;48.592;8.850;2022-12-17T08:10:08;-6.70;99.90
3942;DHT22;1985;48.592;8.850;2022-12-17T08:12:58;-6.60;99.90
3942;DHT22;1985;48.592;8.850;2022-12-17T08:15:43;-6.70;99.90
3942;DHT22;1985;48.592;8.850;2022-12-17T08:18:28;-6.80;99.90
3942;DHT22;1985;48.592;8.850;2022-12-17T08:21:13;-6.80;99.90
3942;DHT22;1985;48.592;8.850;2022-12-17T08:23:57;-6.50;99.90
3942;DHT22;1985;48.592;8.850;2022-12-17T08:26:41;-6.00;99.90
3942;DHT22;1985;48.592;8.850;2022-12-17T08:29:25;-5.50;99.90
3942;DHT22;1985;48.592;8.850;2022-12-17T08:32:09;-5.10;99.90
3942;DHT22;1985;48.592;8.850;2022-12-17T08:34:54;-4.70;99.90
3942;DHT22;1985;48.592;8.850;2022-12-17T08:37:38;-4.40;99.90
3942;DHT22;1985;48.592;8.850;2022-12-17T08:40:22;-4.10;99.90
3942;DHT22;1985;48.592;8.850;2022-12-17T08:43:06;-3.90;99.90
3942;DHT22;1985;48.592;8.850;2022-12-17T08:45:51;-3.80;99.90
3942;DHT22;1985;48.592;8.850;2022-12-17T08:48:36;-3.90;99.90
3942;DHT22;1985;48.592;8.850;2022-12-17T08:51:21;-4.00;99.90
3942;DHT22;1985;48.592;8.850;2022-12-17T08:54:06;-4.40;99.90
3942;DHT22;1985;48.592;8.850;2022-12-17T08:56:50;-4.40;99.90
3942;DHT22;1985;48.592;8.850;2022-12-17T08:59:34;-4.30;99.90
3942;DHT22;1985;48.592;8.850;2022-12-17T09:02:18;-4.30;99.90
3942;DHT22;1985;48.592;8.850;2022-12-17T09:05:03;-4.20;99.90
3942;DHT22;1985;48.592;8.850;2022-12-17T09:07:47;-4.10;99.90
3942;DHT22;1985;48.592;8.850;2022-12-17T09:10:31;-4.00;99.90
3942;DHT22;1985;48.592;8.850;2022-12-17T09:13:15;-4.20;99.90
3942;DHT22;1985;48.592;8.850;2022-12-17T09:15:59;-4.20;99.90
3942;DHT22;1985;48.592;8.850;2022-12-17T09:18:43;-4.60;99.90
3942;DHT22;1985;48.592;8.850;2022-12-17T09:21:28;-4.60;99.90
3942;DHT22;1985;48.592;8.850;2022-12-17T09:24:13;-4.40;99.90
3942;DHT22;1985;48.592;8.850;2022-12-17T09:26:57;-4.50;99.90
3942;DHT22;1985;48.592;8.850;2022-12-17T09:29:42;-4.40;99.90
3942;DHT22;1985;48.592;8.850;2022-12-17T09:32:26;-4.10;99.90
3942;DHT22;1985;48.592;8.850;2022-12-17T09:35:10;-4.20;99.90
3942;DHT22;1985;48.592;8.850;2022-12-17T09:37:55;-3.70;99.90
3942;DHT22;1985;48.592;8.850;2022-12-17T09:40:44;-3.30;99.90
3942;DHT22;1985;48.592;8.850;2022-12-17T09:49:34;-2.40;99.90
3942;DHT22;1985;48.592;8.850;2022-12-17T09:52:27;-2.30;99.90
3942;DHT22;1985;48.592;8.850;2022-12-17T09:55:28;-2.10;99.90
3942;DHT22;1985;48.592;8.850;2022-12-17T09:58:28;-1.80;99.90
3942;DHT22;1985;48.592;8.850;2022-12-17T10:01:22;-1.60;99.90
3942;DHT22;1985;48.592;8.850;2022-12-17T10:04:41;-1.30;99.90
3942;DHT22;1985;48.592;8.850;2022-12-17T10:07:33;-1.20;99.90
3942;DHT22;1985;48.592;8.850;2022-12-17T10:10:26;-1.30;99.90
3942;DHT22;1985;48.592;8.850;2022-12-17T10:13:18;-1.40;99.90
3942;DHT22;1985;48.592;8.850;2022-12-17T10:19:27;-1.60;99.90
3942;DHT22;1985;48.592;8.850;2022-12-17T10:22:14;-1.70;99.90
3942;DHT22;1985;48.592;8.850;2022-12-17T10:28:21;-1.90;99.90
3942;DHT22;1985;48.592;8.850;2022-12-17T10:31:17;-2.40;99.90
3942;DHT22;1985;48.592;8.850;2022-12-17T10:34:06;-3.00;99.90
3942;DHT22;1985;48.592;8.850;2022-12-17T10:36:52;-3.20;99.90
3942;DHT22;1985;48.592;8.850;2022-12-17T10:39:37;-3.40;99.90
3942;DHT22;1985;48.592;8.850;2022-12-17T10:42:24;-3.40;99.90
3942;DHT22;1985;48.592;8.850;2022-12-17T10:48:26;-3.80;99.90
3942;DHT22;1985;48.592;8.850;2022-12-17T10:54:32;-3.70;99.90
3942;DHT22;1985;48.592;8.850;2022-12-17T10:57:35;-3.90;99.90
3942;DHT22;1985;48.592;8.850;2022-12-17T11:06:30;-3.40;99.90
3942;DHT22;1985;48.592;8.850;2022-12-17T11:09:44;-3.20;99.90
3942;DHT22;1985;48.592;8.850;2022-12-17T11:12:35;-3.20;99.90
3942;DHT22;1985;48.592;8.850;2022-12-17T11:18:27;-2.30;99.90
3942;DHT22;1985;48.592;8.850;2022-12-17T11:21:19;-2.40;99.90
3942;DHT22;1985;48.592;8.850;2022-12-17T11:24:11;-2.60;99.90
3942;DHT22;1985;48.592;8.850;2022-12-17T11:26:57;-2.50;99.90
3942;DHT22;1985;48.592;8.850;2022-12-17T11:29:42;-2.10;99.90
3942;DHT22;1985;48.592;8.850;2022-12-17T11:38:40;-1.60;99.90
3942;DHT22;1985;48.592;8.850;2022-12-17T11:45:03;-2.20;99.90
3942;DHT22;1985;48.592;8.850;2022-12-17T11:47:57;-2.10;99.90
3942;DHT22;1985;48.592;8.850;2022-12-17T11:50:53;-2.30;99.90
3942;DHT22;1985;48.592;8.850;2022-12-17T11:57:12;-2.90;99.90
3942;DHT22;1985;48.592;8.850;2022-12-17T12:00:14;-3.20;99.90
3942;DHT22;1985;48.592;8.850;2022-12-17T12:03:07;-3.30;99.90
3942;DHT22;1985;48.592;8.850;2022-12-17T12:05:59;-3.50;99.90
3942;DHT22;1985;48.592;8.850;2022-12-17T12:14:56;-3.90;99.90
3942;DHT22;1985;48.592;8.850;2022-12-17T12:18:12;-3.70;99.90
3942;DHT22;1985;48.592;8.850;2022-12-17T12:33:56;-3.50;99.90
3942;DHT22;1985;48.592;8.850;2022-12-17T12:36:44;-3.60;99.90
3942;DHT22;1985;48.592;8.850;2022-12-17T12:39:56;-3.50;99.90
3942;DHT22;1985;48.592;8.850;2022-12-17T12:42:59;-3.60;99.90
3942;DHT22;1985;48.592;8.850;2022-12-17T12:49:04;-3.40;99.90
3942;DHT22;1985;48.592;8.850;2022-12-17T12:51:53;-3.70;99.90
3942;DHT22;1985;48.592;8.850;2022-12-17T12:57:34;-3.20;99.90
3942;DHT22;1985;48.592;8.850;2022-12-17T13:00:38;-3.10;99.90
3942;DHT22;1985;48.592;8.850;2022-12-17T13:03:29;-3.30;99.90
3942;DHT22;1985;48.592;8.850;2022-12-17T13:17:40;-2.40;99.90
3942;DHT22;1985;48.592;8.850;2022-12-17T13:23:04;-2.00;99.90
3942;DHT22;1985;48.592;8.850;2022-12-17T13:25:30;-1.90;99.90
3942;DHT22;1985;48.592;8.850;2022-12-17T13:27:56;-1.70;99.90
3942;DHT22;1985;48.592;8.850;2022-12-17T13:30:35;-1.50;99.90
3942;DHT22;1985;48.592;8.850;2022-12-17T13:38:36;-1.50;99.90
3942;DHT22;1985;48.592;8.850;2022-12-17T13:41:14;-1.70;99.90
3942;DHT22;1985;48.592;8.850;2022-12-17T13:43:55;-2.20;99.90
3942;DHT22;1985;48.592;8.850;2022-12-17T13:46:27;-2.70;99.90
3942;DHT22;1985;48.592;8.850;2022-12-17T13:49:21;-2.70;99.90
3942;DHT22;1985;48.592;8.850;2022-12-17T13:51:47;-3.00;99.90
3942;DHT22;1985;48.592;8.850;2022-12-17T13:54:24;-2.90;99.90
3942;DHT22;1985;48.592;8.850;2022-12-17T13:56:49;-2.70;99.90
3942;DHT22;1985;48.592;8.850;2022-12-17T13:59:23;-2.80;99.90
3942;DHT22;1985;48.592;8.850;2022-12-17T14:01:51;-3.20;99.90
3942;DHT22;1985;48.592;8.850;2022-12-17T14:04:24;-3.40;99.90
3942;DHT22;1985;48.592;8.850;2022-12-17T14:06:52;-3.40;99.90
3942;DHT22;1985;48.592;8.850;2022-12-17T14:09:21;-3.30;99.90
3942;DHT22;1985;48.592;8.850;2022-12-17T14:11:47;-3.50;99.90
3942;DHT22;1985;48.592;8.850;2022-12-17T14:14:44;-3.70;99.90
3942;DHT22;1985;48.592;8.850;2022-12-17T14:17:22;-3.90;99.90
3942;DHT22;1985;48.592;8.850;2022-12-17T14:20:02;-3.90;99.90
3942;DHT22;1985;48.592;8.850;2022-12-17T14:24:57;-4.00;99.90
3942;DHT22;1985;48.592;8.850;2022-12-17T14:27:31;-4.00;99.90
3942;DHT22;1985;48.592;8.850;2022-12-17T14:29:57;-4.20;99.90
3942;DHT22;1985;48.592;8.850;2022-12-17T14:32:29;-4.30;99.90
3942;DHT22;1985;48.592;8.850;2022-12-17T14:34:55;-4.50;99.90
3942;DHT22;1985;48.592;8.850;2022-12-17T14:37:25;-4.70;99.90
3942;DHT22;1985;48.592;8.850;2022-12-17T14:39:56;-4.70;99.90
3942;DHT22;1985;48.592;8.850;2022-12-17T14:42:24;-4.70;99.90
3942;DHT22;1985;48.592;8.850;2022-12-17T14:45:00;-4.70;99.90
3942;DHT22;1985;48.592;8.850;2022-12-17T14:47:28;-4.60;99.90
3942;DHT22;1985;48.592;8.850;2022-12-17T14:52:45;-4.50;99.90
3942;DHT22;1985;48.592;8.850;2022-12-17T15:00:36;-4.90;99.90
3942;DHT22;1985;48.592;8.850;2022-12-17T15:03:02;-5.00;99.90
3942;DHT22;1985;48.592;8.850;2022-12-17T15:05:27;-5.30;99.90
3942;DHT22;1985;48.592;8.850;2022-12-17T15:07:53;-5.40;99.90
3942;DHT22;1985;48.592;8.850;2022-12-17T15:10:20;-5.50;99.90
3942;DHT22;1985;48.592;8.850;2022-12-17T15:12:46;-5.50;99.90
3942;DHT22;1985;48.592;8.850;2022-12-17T15:15:16;-5.40;99.90
3942;DHT22;1985;48.592;8.850;2022-12-17T15:17:42;-5.40;99.90
3942;DHT22;1985;48.592;8.850;2022-12-17T15:20:18;-5.60;99.90
3942;DHT22;1985;48.592;8.850;2022-12-17T15:22:45;-5.60;99.90
3942;DHT22;1985;48.592;8.850;2022-12-17T15:25:16;-5.90;99.90
3942;DHT22;1985;48.592;8.850;2022-12-17T15:27:42;-5.90;99.90
3942;DHT22;1985;48.592;8.850;2022-12-17T15:30:13;-5.90;99.90
3942;DHT22;1985;48.592;8.850;2022-12-17T15:32:39;-5.70;99.90
3942;DHT22;1985;48.592;8.850;2022-12-17T15:35:04;-5.60;99.90
3942;DHT22;1985;48.592;8.850;2022-12-17T15:37:30;-5.70;99.90
3942;DHT22;1985;48.592;8.850;2022-12-17T15:39:56;-5.90;99.90
3942;DHT22;1985;48.592;8.850;2022-12-17T15:42:21;-6.10;99.90
3942;DHT22;1985;48.592;8.850;2022-12-17T15:45:06;-6.10;99.90
3942;DHT22;1985;48.592;8.850;2022-12-17T15:47:32;-6.10;99.90
3942;DHT22;1985;48.592;8.850;2022-12-17T15:49:57;-6.10;99.90
3942;DHT22;1985;48.592;8.850;2022-12-17T15:52:23;-6.00;99.90
3942;DHT22;1985;48.592;8.850;2022-12-17T15:54:48;-6.00;99.90
3942;DHT22;1985;48.592;8.850;2022-12-17T15:57:14;-5.90;99.90
3942;DHT22;1985;48.592;8.850;2022-12-17T15:59:40;-5.90;99.90
3942;DHT22;1985;48.592;8.850;2022-12-17T16:02:07;-5.90;99.90
3942;DHT22;1985;48.592;8.850;2022-12-17T16:04:33;-6.10;99.90
3942;DHT22;1985;48.592;8.850;2022-12-17T16:06:59;-6.20;99.90
3942;DHT22;1985;48.592;8.850;2022-12-17T16:09:24;-6.70;99.90
3942;DHT22;1985;48.592;8.850;2022-12-17T16:11:54;-7.10;99.90
3942;DHT22;1985;48.592;8.850;2022-12-17T16:14:21;-7.40;99.90
3942;DHT22;1985;48.592;8.850;2022-12-17T16:16:47;-7.80;99.90
3942;DHT22;1985;48.592;8.850;2022-12-17T16:19:13;-7.80;99.90
3942;DHT22;1985;48.592;8.850;2022-12-17T16:21:39;-7.90;99.90
3942;DHT22;1985;48.592;8.850;2022-12-17T16:24:05;-8.00;99.90
3942;DHT22;1985;48.592;8.850;2022-12-17T16:26:31;-7.70;99.90
3942;DHT22;1985;48.592;8.850;2022-12-17T16:28:57;-7.60;99.90
3942;DHT22;1985;48.592;8.850;2022-12-17T16:31:23;-7.30;99.90
3942;DHT22;1985;48.592;8.850;2022-12-17T16:33:49;-7.00;99.90
3942;DHT22;1985;48.592;8.850;2022-12-17T16:36:17;-6.70;99.90
3942;DHT22;1985;48.592;8.850;2022-12-17T16:38:50;-6.40;99.90
3942;DHT22;1985;48.592;8.850;2022-12-17T16:41:17;-6.20;99.90
3942;DHT22;1985;48.592;8.850;2022-12-17T16:43:43;-6.10;99.90
3942;DHT22;1985;48.592;8.850;2022-12-17T16:46:32;-6.10;99.90
3942;DHT22;1985;48.592;8.850;2022-12-17T16:49:03;-6.00;99.90
3942;DHT22;1985;48.592;8.850;2022-12-17T16:51:29;-5.90;99.90
3942;DHT22;1985;48.592;8.850;2022-12-17T16:53:56;-5.80;99.90
3942;DHT22;1985;48.592;8.850;2022-12-17T16:56:26;-5.80;99.90
3942;DHT22;1985;48.592;8.850;2022-12-17T16:58:53;-5.70;99.90
3942;DHT22;1985;48.592;8.850;2022-12-17T17:01:22;-5.80;99.90
3942;DHT22;1985;48.592;8.850;2022-12-17T17:03:48;-5.80;99.90
3942;DHT22;1985;48.592;8.850;2022-12-17T17:06:15;-5.80;99.90
3942;DHT22;1985;48.592;8.850;2022-12-17T17:08:41;-5.70;99.90
3942;DHT22;1985;48.592;8.850;2022-12-17T17:11:16;-5.70;99.90
3942;DHT22;1985;48.592;8.850;2022-12-17T17:13:44;-5.70;99.90
3942;DHT22;1985;48.592;8.850;2022-12-17T17:16:10;-5.80;99.90
3942;DHT22;1985;48.592;8.850;2022-12-17T17:18:36;-5.90;99.90
3942;DHT22;1985;48.592;8.850;2022-12-17T17:23:43;-6.00;99.90
3942;DHT22;1985;48.592;8.850;2022-12-17T17:26:09;-5.90;99.90
3942;DHT22;1985;48.592;8.850;2022-12-17T17:28:35;-5.90;99.90
3942;DHT22;1985;48.592;8.850;2022-12-17T17:31:03;-5.80;99.90
3942;DHT22;1985;48.592;8.850;2022-12-17T17:33:30;-5.80;99.90
3942;DHT22;1985;48.592;8.850;2022-12-17T17:36:08;-5.80;99.90
3942;DHT22;1985;48.592;8.850;2022-12-17T17:38:35;-5.80;99.90
3942;DHT22;1985;48.592;8.850;2022-12-17T17:41:01;-5.70;99.90
3942;DHT22;1985;48.592;8.850;2022-12-17T17:43:27;-5.80;99.90
3942;DHT22;1985;48.592;8.850;2022-12-17T17:45:53;-5.80;99.90
3942;DHT22;1985;48.592;8.850;2022-12-17T17:48:22;-5.80;99.90
3942;DHT22;1985;48.592;8.850;2022-12-17T17:51:10;-5.80;99.90
3942;DHT22;1985;48.592;8.850;2022-12-17T17:53:36;-5.90;99.90
3942;DHT22;1985;48.592;8.850;2022-12-17T17:56:07;-6.00;99.90
3942;DHT22;1985;48.592;8.850;2022-12-17T17:58:40;-6.10;99.90
3942;DHT22;1985;48.592;8.850;2022-12-17T18:01:08;-6.10;99.90
3942;DHT22;1985;48.592;8.850;2022-12-17T18:03:34;-6.00;99.90
3942;DHT22;1985;48.592;8.850;2022-12-17T18:06:01;-5.90;99.90
3942;DHT22;1985;48.592;8.850;2022-12-17T18:08:30;-5.80;99.90
3942;DHT22;1985;48.592;8.850;2022-12-17T18:11:00;-5.70;99.90
3942;DHT22;1985;48.592;8.850;2022-12-17T18:13:26;-5.70;99.90
3942;DHT22;1985;48.592;8.850;2022-12-17T18:16:11;-5.80;99.90
3942;DHT22;1985;48.592;8.850;2022-12-17T18:18:37;-5.90;99.90
3942;DHT22;1985;48.592;8.850;2022-12-17T18:21:08;-5.90;99.90
3942;DHT22;1985;48.592;8.850;2022-12-17T18:23:35;-5.90;99.90
3942;DHT22;1985;48.592;8.850;2022-12-17T18:26:20;-6.00;99.90
3942;DHT22;1985;48.592;8.850;2022-12-17T18:28:47;-6.10;99.90
3942;DHT22;1985;48.592;8.850;2022-12-17T18:31:18;-6.20;99.90
3942;DHT22;1985;48.592;8.850;2022-12-17T18:33:51;-6.30;99.90
3942;DHT22;1985;48.592;8.850;2022-12-17T18:36:20;-6.20;99.90
3942;DHT22;1985;48.592;8.850;2022-12-17T18:38:46;-6.20;99.90
3942;DHT22;1985;48.592;8.850;2022-12-17T18:41:15;-6.20;99.90
3942;DHT22;1985;48.592;8.850;2022-12-17T18:44:02;-6.40;99.90
3942;DHT22;1985;48.592;8.850;2022-12-17T18:46:29;-6.40;99.90
3942;DHT22;1985;48.592;8.850;2022-12-17T18:49:00;-6.30;99.90
3942;DHT22;1985;48.592;8.850;2022-12-17T18:51:27;-6.40;99.90
3942;DHT22;1985;48.592;8.850;2022-12-17T18:54:00;-6.40;99.90
3942;DHT22;1985;48.592;8.850;2022-12-17T18:56:28;-6.40;99.90
3942;DHT22;1985;48.592;8.850;2022-12-17T18:58:55;-6.40;99.90
3942;DHT22;1985;48.592;8.850;2022-12-17T19:01:23;-6.50;99.90
3942;DHT22;1985;48.592;8.850;2022-12-17T19:03:50;-6.50;99.90
3942;DHT22;1985;48.592;8.850;2022-12-17T19:06:17;-6.70;99.90
3942;DHT22;1985;48.592;8.850;2022-12-17T19:08:43;-6.70;99.90
3942;DHT22;1985;48.592;8.850;2022-12-17T19:11:10;-6.80;99.90
3942;DHT22;1985;48.592;8.850;2022-12-17T19:13:36;-6.80;99.90
3942;DHT22;1985;48.592;8.850;2022-12-17T19:16:09;-6.80;99.90
3942;DHT22;1985;48.592;8.850;2022-12-17T19:18:36;-6.80;99.90